Time;durP1;ratioP1;P1;durP2;ratioP2;P2;SDS_P1;SDS_P2;PMS_P1;PMS_P2;Temp;Humidity;BMP_temperature;BMP_pressure;BME280_temperature;BME280_humidity;BME280_pressure;Samples;Min_cycle;Max_cycle;Signal;HPM_P1;HPM_P2
2022/05/19 00:01:04;;;;;;;;;;;;;;;;;;5091625;27;19913;-72
2022/05/19 00:03:30;;;;;;;;;;;;;;;;;;5091151;28;19974;-72
2022/05/19 00:05:58;;;;;;;;;;;;;;;;;;5091125;28;19909;-72
2022/05/19 00:08:24;;;;;;;;;;;;;;;;;;5091083;28;19985;-72
2022/05/19 00:10:50;;;;;;;;;;;;;;;;;;5091167;28;20356;-73
2022/05/19 00:13:16;;;;;;;;;;;;;;;;;;5089299;28;19935;-72
2022/05/19 00:15:42;;;;;;;;;;;;;;;;;;5090966;28;19981;-73
2022/05/19 00:18:08;;;;;;;;;;;;;;;;;;5090854;28;19909;-73
2022/05/19 00:20:34;;;;;;;;;;;;;;;;;;5090491;28;19917;-72
2022/05/19 00:22:59;;;;;;;;;;;;;;;;;;5090933;28;20018;-72
2022/05/19 00:25:25;;;;;;;;;;;;;;;;;;5090757;28;19909;-73
2022/05/19 00:27:51;;;;;;;;;;;;;;;;;;5090422;28;20000;-75
2022/05/19 00:30:17;;;;;;;;;;;;;;;;;;5091154;28;20396;-73
2022/05/19 00:32:43;;;;;;;;;;;;;;;;;;5090748;28;19927;-72
2022/05/19 00:35:09;;;;;;;;;;;;;;;;;;5090297;28;19908;-72
2022/05/19 00:37:35;;;;;;;;;;;;;;;;;;5089213;28;20365;-73
2022/05/19 00:40:01;;;;;;;;;;;;;;;;;;5090793;28;19924;-73
2022/05/19 00:42:45;;;;;;;;;;;;;;;;;;5090080;28;19909;-73
2022/05/19 00:45:11;;;;;;;;;;;;;;;;;;5090960;28;19954;-73
2022/05/19 00:47:37;;;;;;;;;;;;;;;;;;5089901;28;19913;-73
2022/05/19 00:50:03;;;;;;;;;;;;;;;;;;5090194;28;19940;-73
2022/05/19 00:52:29;;;;;;;;;;;;;;;;;;5090483;28;19915;-72
2022/05/19 00:54:55;;;;;;;;;;;;;;;;;;5089962;28;19954;-72
2022/05/19 00:57:21;;;;;;;;;;;;;;;;;;5090178;28;19908;-72
2022/05/19 00:59:47;;;;;;;;;;;;;;;;;;5099975;28;19920;-73
2022/05/19 01:02:13;;;;;;;;;;;;;;;;;;5110116;28;19915;-73
2022/05/19 01:04:39;;;;;;;;;;;;;;;;;;5110374;28;19908;-73
2022/05/19 01:07:05;;;;;;;;;;;;;;;;;;5110660;28;19915;-73
2022/05/19 01:09:34;;;;;;;;;;;;;;;;;;5110137;28;20433;-73
2022/05/19 01:12:00;;;;;;;;;;;;;;;;;;5080507;28;19908;-73
2022/05/19 01:14:26;;;;;;;;;;;;;;;;;;5096698;28;19946;-73
2022/05/19 01:16:52;;;;;;;;;;;;;;;;;;5096351;28;19912;-73
2022/05/19 01:19:18;;;;;;;;;;;;;;;;;;5096410;28;19912;-73
2022/05/19 01:21:44;;;;;;;;;;;;;;;;;;5078371;28;19915;-73
2022/05/19 01:24:12;;;;;;;;;;;;;;;;;;5096077;28;19908;-73
2022/05/19 01:26:38;;;;;;;;;;;;;;;;;;5096404;28;20011;-73
2022/05/19 01:29:04;;;;;;;;;;;;;;;;;;5096363;28;19986;-73
2022/05/19 01:31:30;;;;;;;;;;;;;;;;;;5095988;28;19946;-73
2022/05/19 01:33:56;;;;;;;;;;;;;;;;;;5096472;28;19953;-73
2022/05/19 01:36:22;;;;;;;;;;;;;;;;;;5096253;28;19955;-72
2022/05/19 01:38:48;;;;;;;;;;;;;;;;;;5095678;28;19931;-72
2022/05/19 01:41:14;;;;;;;;;;;;;;;;;;5096220;28;20380;-73
2022/05/19 01:43:40;;;;;;;;;;;;;;;;;;5095871;28;19915;-73
2022/05/19 01:46:06;;;;;;;;;;;;;;;;;;5096046;28;19912;-73
2022/05/19 01:48:32;;;;;;;;;;;;;;;;;;5096274;28;20002;-73
2022/05/19 01:50:58;;;;;;;;;;;;;;;;;;5096035;28;19942;-72
2022/05/19 01:53:24;;;;;;;;;;;;;;;;;;5095964;28;19945;-72
2022/05/19 01:55:50;;;;;;;;;;;;;;;;;;5096115;28;19914;-72
2022/05/19 01:58:16;;;;;;;;;;;;;;;;;;5095524;28;19908;-73
2022/05/19 02:00:42;;;;;;;;;;;;;;;;;;5077436;28;19924;-72
2022/05/19 02:03:08;;;;;;;;;;;;;;;;;;5077553;28;20321;-73
2022/05/19 02:05:34;;;;;;;;;;;;;;;;;;5095302;28;19947;-73
2022/05/19 02:08:00;;;;;;;;;;;;;;;;;;5095802;28;20368;-73
2022/05/19 02:10:26;;;;;;;;;;;;;;;;;;5095564;28;19908;-73
2022/05/19 02:12:52;;;;;;;;;;;;;;;;;;5095158;28;19981;-73
2022/05/19 02:15:18;;;;;;;;;;;;;;;;;;5096036;28;20349;-73
2022/05/19 02:17:44;;;;;;;;;;;;;;;;;;5095476;28;19909;-73
2022/05/19 02:20:10;;;;;;;;;;;;;;;;;;5076794;28;20398;-73
2022/05/19 02:22:36;;;;;;;;;;;;;;;;;;5094345;28;19908;-73
2022/05/19 02:25:02;;;;;;;;;;;;;;;;;;5077185;28;19912;-73
2022/05/19 02:27:31;;;;;;;;;;;;;;;;;;5094877;28;19908;-73
2022/05/19 02:29:57;;;;;;;;;;;;;;;;;;5095209;28;19915;-74
2022/05/19 02:32:23;;;;;;;;;;;;;;;;;;5095109;28;19995;-73
2022/05/19 02:34:49;;;;;;;;;;;;;;;;;;5094839;28;19916;-73
2022/05/19 02:37:15;;;;;;;;;;;;;;;;;;5095099;28;20272;-72
2022/05/19 02:39:41;;;;;;;;;;;;;;;;;;5094984;28;19916;-73
2022/05/19 02:42:07;;;;;;;;;;;;;;;;;;5094655;28;19962;-73
2022/05/19 02:44:32;;;;;;;;;;;;;;;;;;5094921;28;19974;-73
2022/05/19 02:46:58;;;;;;;;;;;;;;;;;;5094680;28;19914;-73
2022/05/19 02:49:24;;;;;;;;;;;;;;;;;;5095215;28;19908;-72
2022/05/19 02:51:50;;;;;;;;;;;;;;;;;;5094738;28;19940;-72
2022/05/19 02:54:20;;;;;;;;;;;;;;;;;;5094378;28;19953;-72
2022/05/19 02:56:46;;;;;;;;;;;;;;;;;;5094730;28;19908;-73
2022/05/19 02:59:12;;;;;;;;;;;;;;;;;;5094554;28;19931;-73
2022/05/19 03:01:38;;;;;;;;;;;;;;;;;;5094217;28;19908;-73
2022/05/19 03:04:04;;;;;;;;;;;;;;;;;;5094548;28;20002;-73
2022/05/19 03:06:30;;;;;;;;;;;;;;;;;;5094527;28;20345;-73
2022/05/19 03:08:56;;;;;;;;;;;;;;;;;;5094062;28;19915;-73
2022/05/19 03:11:22;;;;;;;;;;;;;;;;;;5094422;28;19994;-73
2022/05/19 03:13:48;;;;;;;;;;;;;;;;;;5094358;28;20257;-73
2022/05/19 03:16:14;;;;;;;;;;;;;;;;;;5094057;28;19908;-73
2022/05/19 03:18:40;;;;;;;;;;;;;;;;;;5094272;28;19943;-73
2022/05/19 03:21:06;;;;;;;;;;;;;;;;;;5076058;28;19914;-73
2022/05/19 03:23:32;;;;;;;;;;;;;;;;;;5093857;28;19912;-73
2022/05/19 03:25:58;;;;;;;;;;;;;;;;;;5094162;28;19908;-73
2022/05/19 03:28:24;;;;;;;;;;;;;;;;;;5075984;28;19908;-73
2022/05/19 03:30:50;;;;;;;;;;;;;;;;;;5093930;28;19915;-73
2022/05/19 03:33:16;;;;;;;;;;;;;;;;;;5094358;28;19908;-73
2022/05/19 03:35:42;;;;;;;;;;;;;;;;;;5094010;28;19912;-72
2022/05/19 03:38:08;;;;;;;;;;;;;;;;;;5093635;28;20327;-72
2022/05/19 03:40:34;;;;;;;;;;;;;;;;;;5093874;28;19916;-72
2022/05/19 03:43:00;;;;;;;;;;;;;;;;;;5093911;28;19931;-72
2022/05/19 03:45:26;;;;;;;;;;;;;;;;;;5093557;28;19908;-73
2022/05/19 03:47:52;;;;;;;;;;;;;;;;;;5093957;28;19919;-73
2022/05/19 03:50:18;;;;;;;;;;;;;;;;;;5093427;28;19912;-72
2022/05/19 03:52:44;;;;;;;;;;;;;;;;;;5094160;28;20008;-72
2022/05/19 03:55:10;;;;;;;;;;;;;;;;;;5094264;28;19908;-72
2022/05/19 03:57:36;;;;;;;;;;;;;;;;;;5093337;28;19954;-72
2022/05/19 04:00:03;;;;;;;;;;;;;;;;;;5093461;28;20303;-72
2022/05/19 04:02:29;;;;;;;;;;;;;;;;;;5075634;28;19908;-72
2022/05/19 04:04:55;;;;;;;;;;;;;;;;;;5093270;28;20017;-72
2022/05/19 04:07:20;;;;;;;;;;;;;;;;;;5093728;28;19954;-72
2022/05/19 04:09:46;;;;;;;;;;;;;;;;;;5093697;28;19908;-72
2022/05/19 04:12:12;;;;;;;;;;;;;;;;;;5093329;28;19912;-72
2022/05/19 04:14:38;;;;;;;;;;;;;;;;;;5093862;28;20284;-72
2022/05/19 04:17:04;;;;;;;;;;;;;;;;;;5093890;28;19908;-72
2022/05/19 04:19:30;;;;;;;;;;;;;;;;;;5093322;28;19923;-72
2022/05/19 04:21:57;;;;;;;;;;;;;;;;;;5093726;28;19908;-73
2022/05/19 04:24:23;;;;;;;;;;;;;;;;;;5093640;28;19908;-73
2022/05/19 04:26:49;;;;;;;;;;;;;;;;;;5075151;28;19913;-73
2022/05/19 04:29:15;;;;;;;;;;;;;;;;;;5075448;28;20360;-73
2022/05/19 04:31:41;;;;;;;;;;;;;;;;;;5075374;28;19915;-74
2022/05/19 04:34:07;;;;;;;;;;;;;;;;;;5093301;28;20368;-70
2022/05/19 04:36:33;;;;;;;;;;;;;;;;;;5093589;28;19915;-70
2022/05/19 04:38:59;;;;;;;;;;;;;;;;;;5093494;28;20273;-69
2022/05/19 04:41:25;;;;;;;;;;;;;;;;;;5093112;28;19918;-70
2022/05/19 04:43:51;;;;;;;;;;;;;;;;;;5093615;28;19915;-70
2022/05/19 04:46:17;;;;;;;;;;;;;;;;;;5094702;28;19908;-70
2022/05/19 04:48:43;;;;;;;;;;;;;;;;;;5096903;28;19908;-70
2022/05/19 04:51:09;;;;;;;;;;;;;;;;;;5079037;28;19930;-69
2022/05/19 04:53:35;;;;;;;;;;;;;;;;;;5096939;28;19915;-69
2022/05/19 04:56:01;;;;;;;;;;;;;;;;;;5097222;28;19930;-70
2022/05/19 04:58:27;;;;;;;;;;;;;;;;;;5097032;28;19951;-71
2022/05/19 05:00:53;;;;;;;;;;;;;;;;;;5096383;28;19993;-70
2022/05/19 05:03:19;;;;;;;;;;;;;;;;;;5096969;28;20082;-69
2022/05/19 05:05:45;;;;;;;;;;;;;;;;;;5096785;28;19947;-67
2022/05/19 05:08:11;;;;;;;;;;;;;;;;;;5096310;28;20011;-68
2022/05/19 05:10:37;;;;;;;;;;;;;;;;;;5096768;28;19908;-68
2022/05/19 05:13:03;;;;;;;;;;;;;;;;;;5076026;28;19927;-66
2022/05/19 05:15:29;;;;;;;;;;;;;;;;;;5089130;28;20310;-67
2022/05/19 05:17:55;;;;;;;;;;;;;;;;;;5075432;28;19919;-67
2022/05/19 05:20:21;;;;;;;;;;;;;;;;;;5095038;28;20364;-67
2022/05/19 05:22:47;;;;;;;;;;;;;;;;;;5093043;28;19908;-67
2022/05/19 05:25:13;;;;;;;;;;;;;;;;;;5090230;28;19915;-68
2022/05/19 05:27:39;;;;;;;;;;;;;;;;;;5093019;28;20383;-68
2022/05/19 05:30:06;;;;;;;;;;;;;;;;;;5094368;28;19915;-67
2022/05/19 05:32:32;;;;;;;;;;;;;;;;;;5094137;28;19920;-68
2022/05/19 05:34:59;;;;;;;;;;;;;;;;;;5081863;28;19946;-67
2022/05/19 05:37:25;;;;;;;;;;;;;;;;;;5107254;28;19915;-68
2022/05/19 05:39:51;;;;;;;;;;;;;;;;;;5088448;28;19923;-68
2022/05/19 05:42:16;;;;;;;;;;;;;;;;;;5089249;28;19908;-67
2022/05/19 05:44:42;;;;;;;;;;;;;;;;;;5089050;28;19939;-67
2022/05/19 05:47:08;;;;;;;;;;;;;;;;;;5091274;28;19961;-68
2022/05/19 05:49:34;;;;;;;;;;;;;;;;;;5073372;28;20007;-68
2022/05/19 05:52:00;;;;;;;;;;;;;;;;;;5091002;28;19919;-68
2022/05/19 05:55:16;;;;;;;;;;;;;;;;;;5087110;28;19922;-68
2022/05/19 05:57:42;;;;;;;;;;;;;;;;;;5086381;28;19912;-68
2022/05/19 06:00:08;;;;;;;;;;;;;;;;;;5087172;28;19909;-68
2022/05/19 06:02:34;;;;;;;;;;;;;;;;;;5095132;28;19915;-67
2022/05/19 06:05:00;;;;;;;;;;;;;;;;;;5106442;28;19987;-68
2022/05/19 06:07:29;;;;;;;;;;;;;;;;;;5099342;28;20016;-68
2022/05/19 06:09:54;;;;;;;;;;;;;;;;;;5074291;28;19974;-66
2022/05/19 06:14:46;;;;;;;;;;;;;;;;;;5075546;27;19927;-69
2022/05/19 06:17:12;;;;;;;;;;;;;;;;;;5067095;28;19913;-68
2022/05/19 06:20:59;;;;;;;;;;;;;;;;;;5083741;27;19920;-67
2022/05/19 06:23:25;;;;;;;;;;;;;;;;;;5089046;28;19923;-67
2022/05/19 06:25:51;;;;;;;;;;;;;;;;;;5087448;28;20487;-66
2022/05/19 06:28:47;;;;;;;;;;;;;;;;;;5109452;27;19916;-67
2022/05/19 06:34:06;;;;;;;;;;;;;;;;;;5087945;27;19918;-66
2022/05/19 06:36:33;;;;;;;;;;;;;;;;;;5084508;28;19912;-66
2022/05/19 06:42:14;;;;;;;;;;;;;;;;;;5119458;27;19926;-69
2022/05/19 06:45:00;;;;;;;;;;;;;;;;;;5089225;27;19912;-68
2022/05/19 06:51:11;;;;;;;;;;;;;;;;;;5089487;27;19935;-66
2022/05/19 06:53:37;;;;;;;;;;;;;;;;;;5075047;28;19913;-66
2022/05/19 06:56:04;;;;;;;;;;;;;;;;;;5073936;28;19913;-67
2022/05/19 06:59:03;;;;;;;;;;;;;;;;;;5103989;27;20410;-68
2022/05/19 07:03:35;;;;;;;;;;;;;;;;;;5106256;27;19912;-66
2022/05/19 07:06:01;;;;;;;;;;;;;;;;;;5105663;28;19912;-66
2022/05/19 07:08:27;;;;;;;;;;;;;;;;;;5090673;28;20428;-67
2022/05/19 07:10:53;;;;;;;;;;;;;;;;;;5083578;28;19916;-70
2022/05/19 07:14:58;;;;;;;;;;;;;;;;;;5080966;27;20312;-66
2022/05/19 07:17:24;;;;;;;;;;;;;;;;;;5084921;28;20019;-67
2022/05/19 07:30:58;;;;;;;;;;;;;;;;;;5129438;27;20144;-67
2022/05/19 07:36:36;;;;;;;;;;;;;;;;;;5084821;27;19950;-66
2022/05/19 07:40:31;;;;;;;;;;;;;;;;;;5099674;27;19926;-67
2022/05/19 07:45:42;;;;;;;;;;;;;;;;;;5106713;28;20607;-67
2022/05/19 07:54:24;;;;;;;;;;;;;;;;;;5111375;27;19920;-67
2022/05/19 07:58:14;;;;;;;;;;;;;;;;;;5151682;27;19995;-66
2022/05/19 08:01:51;;;;;;;;;;;;;;;;;;5084544;27;19938;-68
2022/05/19 08:04:17;;;;;;;;;;;;;;;;;;5088289;28;19913;-68
2022/05/19 08:06:43;;;;;;;;;;;;;;;;;;5088174;28;19909;-67
2022/05/19 08:11:53;;;;;;;;;;;;;;;;;;5087865;28;19916;-69
2022/05/19 08:15:36;;;;;;;;;;;;;;;;;;5087572;27;19927;-65
2022/05/19 08:19:12;;;;;;;;;;;;;;;;;;5109788;27;20291;-67
2022/05/19 08:21:38;;;;;;;;;;;;;;;;;;5109079;28;19912;-67
2022/05/19 08:24:49;;;;;;;;;;;;;;;;;;5091841;27;20435;-67
2022/05/19 08:36:14;;;;;;;;;;;;;;;;;;4164583;27;2070107;-67
2022/05/19 08:38:40;;;;;;;;;;;;;;;;;;5128465;27;19912;-68
2022/05/19 08:41:06;;;;;;;;;;;;;;;;;;5151632;27;19953;-67
2022/05/19 08:47:13;;;;;;;;;;;;;;;;;;5076136;27;19927;-68
2022/05/19 08:49:38;;;;;;;;;;;;;;;;;;5071440;28;19999;-67
2022/05/19 08:52:04;;;;;;;;;;;;;;;;;;5077432;28;20004;-67
2022/05/19 08:54:47;;;;;;;;;;;;;;;;;;5136698;27;19916;-67
2022/05/19 09:03:14;;;;;;;;;;;;;;;;;;5067728;28;19920;-66
2022/05/19 09:08:19;;;;;;;;;;;;;;;;;;5089887;27;19920;-66
2022/05/19 09:10:45;;;;;;;;;;;;;;;;;;5088160;28;19918;-66
2022/05/19 09:13:11;;;;;;;;;;;;;;;;;;5081733;28;19916;-66
2022/05/19 09:18:19;;;;;;;;;;;;;;;;;;5087374;27;19921;-69
2022/05/19 09:20:45;;;;;;;;;;;;;;;;;;5079067;28;19935;-67
2022/05/19 09:25:07;;;;;;;;;;;;;;;;;;5148894;27;19922;-69
2022/05/19 09:27:32;;;;;;;;;;;;;;;;;;5149485;27;19919;-68
2022/05/19 09:29:58;;;;;;;;;;;;;;;;;;5148631;27;19968;-68
2022/05/19 09:32:26;;;;;;;;;;;;;;;;;;5155827;27;19907;-69
2022/05/19 09:34:52;;;;;;;;;;;;;;;;;;5146834;27;19908;-68
2022/05/19 09:41:48;;;;;;;;;;;;;;;;;;5114208;27;19938;-68
2022/05/19 09:46:50;;;;;;;;;;;;;;;;;;5078288;27;19927;-67
2022/05/19 09:53:33;;;;;;;;;;;;;;;;;;5088452;27;19934;-67
2022/05/19 09:56:28;;;;;;;;;;;;;;;;;;5085135;27;19920;-67
2022/05/19 09:58:54;;;;;;;;;;;;;;;;;;5088850;28;19919;-67
2022/05/19 10:02:27;;;;;;;;;;;;;;;;;;5081301;27;19916;-67
2022/05/19 10:04:55;;;;;;;;;;;;;;;;;;5083138;28;20292;-67
2022/05/19 10:07:24;;;;;;;;;;;;;;;;;;5069020;28;20365;-67
2022/05/19 10:09:50;;;;;;;;;;;;;;;;;;5066022;28;19921;-67
2022/05/19 10:15:20;;;;;;;;;;;;;;;;;;5056063;28;20282;-68
2022/05/19 10:17:46;;;;;;;;;;;;;;;;;;5049455;28;19913;-68
2022/05/19 10:20:12;;;;;;;;;;;;;;;;;;5049118;28;20247;-68
2022/05/19 10:22:39;;;;;;;;;;;;;;;;;;5058534;28;20323;-68
2022/05/19 10:25:05;;;;;;;;;;;;;;;;;;5047366;28;19909;-69
2022/05/19 10:33:01;;;;;;;;;;;;;;;;;;5039474;28;19967;-68
2022/05/19 10:35:59;;;;;;;;;;;;;;;;;;5096613;27;19925;-67
2022/05/19 10:38:27;;;;;;;;;;;;;;;;;;5088609;28;19951;-67
2022/05/19 10:40:53;;;;;;;;;;;;;;;;;;5105785;28;19908;-67
2022/05/19 10:43:19;;;;;;;;;;;;;;;;;;5102695;28;20237;-67
2022/05/19 10:45:45;;;;;;;;;;;;;;;;;;5088019;28;20284;-68
2022/05/19 10:48:12;;;;;;;;;;;;;;;;;;5087910;28;20315;-67
2022/05/19 10:50:38;;;;;;;;;;;;;;;;;;5088590;28;19981;-68
2022/05/19 10:54:58;;;;;;;;;;;;;;;;;;5089546;27;20385;-68
2022/05/19 10:59:31;;;;;;;;;;;;;;;;;;5085326;27;20248;-67
2022/05/19 11:01:57;;;;;;;;;;;;;;;;;;5085023;28;19912;-67
2022/05/19 11:04:23;;;;;;;;;;;;;;;;;;5083639;28;20497;-67
2022/05/19 11:06:49;;;;;;;;;;;;;;;;;;5082342;28;19913;-68
2022/05/19 11:09:16;;;;;;;;;;;;;;;;;;5082569;28;19909;-67
2022/05/19 11:14:14;;;;;;;;;;;;;;;;;;5106662;27;20327;-69
2022/05/19 11:16:41;;;;;;;;;;;;;;;;;;5104267;28;19912;-69
2022/05/19 11:19:07;;;;;;;;;;;;;;;;;;5101573;28;19923;-69
2022/05/19 11:21:33;;;;;;;;;;;;;;;;;;5103116;28;19994;-70
2022/05/19 11:23:59;;;;;;;;;;;;;;;;;;5101236;28;19916;-70
2022/05/19 11:26:26;;;;;;;;;;;;;;;;;;5104113;28;20027;-70
2022/05/19 11:28:52;;;;;;;;;;;;;;;;;;5103504;28;20401;-69
2022/05/19 11:31:18;;;;;;;;;;;;;;;;;;5104515;28;19912;-70
2022/05/19 11:34:46;;;;;;;;;;;;;;;;;;5092983;27;2110444;-67
2022/05/19 11:37:12;;;;;;;;;;;;;;;;;;5138261;27;20228;-69
2022/05/19 11:39:38;;;;;;;;;;;;;;;;;;5150308;27;19907;-68
2022/05/19 11:42:04;;;;;;;;;;;;;;;;;;5151088;27;20690;-68
2022/05/19 11:44:29;;;;;;;;;;;;;;;;;;5151475;27;19908;-68
2022/05/19 11:46:55;;;;;;;;;;;;;;;;;;5152162;27;19915;-68
2022/05/19 11:57:37;;;;;;;;;;;;;;;;;;5150043;27;19956;-70
2022/05/19 12:00:03;;;;;;;;;;;;;;;;;;5151123;27;19907;-70
2022/05/19 12:02:29;;;;;;;;;;;;;;;;;;5150516;27;19911;-71
2022/05/19 12:04:55;;;;;;;;;;;;;;;;;;5152591;27;20281;-71
2022/05/19 12:07:24;;;;;;;;;;;;;;;;;;5171002;27;19911;-71
2022/05/19 12:09:50;;;;;;;;;;;;;;;;;;5168203;27;19914;-71
2022/05/19 12:12:16;;;;;;;;;;;;;;;;;;5170825;27;19911;-70
2022/05/19 12:14:42;;;;;;;;;;;;;;;;;;5171482;27;19911;-70
2022/05/19 12:17:09;;;;;;;;;;;;;;;;;;5171927;27;19999;-71
2022/05/19 12:19:35;;;;;;;;;;;;;;;;;;5170214;27;19913;-71
2022/05/19 12:22:01;;;;;;;;;;;;;;;;;;5158557;27;19912;-71
2022/05/19 12:24:27;;;;;;;;;;;;;;;;;;5151415;27;19907;-71
2022/05/19 12:26:53;;;;;;;;;;;;;;;;;;5151917;27;19907;-71
2022/05/19 12:29:19;;;;;;;;;;;;;;;;;;5152086;27;19915;-71
2022/05/19 12:31:59;;;;;;;;;;;;;;;;;;5151606;27;20316;-71
2022/05/19 12:34:25;;;;;;;;;;;;;;;;;;5151348;27;19969;-71
2022/05/19 12:36:51;;;;;;;;;;;;;;;;;;5151991;27;19908;-71
2022/05/19 12:39:16;;;;;;;;;;;;;;;;;;5151254;27;19907;-71
2022/05/19 12:41:43;;;;;;;;;;;;;;;;;;5132870;27;19907;-71
2022/05/19 12:44:08;;;;;;;;;;;;;;;;;;5149001;27;19915;-71
2022/05/19 12:46:37;;;;;;;;;;;;;;;;;;5137132;27;19912;-72
2022/05/19 12:49:03;;;;;;;;;;;;;;;;;;5137616;27;19960;-72
2022/05/19 12:51:28;;;;;;;;;;;;;;;;;;5137553;27;20379;-72
2022/05/19 12:53:54;;;;;;;;;;;;;;;;;;5118586;27;20287;-72
2022/05/19 12:56:20;;;;;;;;;;;;;;;;;;5151204;27;20379;-71
2022/05/19 12:58:46;;;;;;;;;;;;;;;;;;5146641;27;20263;-71
2022/05/19 13:01:12;;;;;;;;;;;;;;;;;;5157640;27;19907;-71
2022/05/19 13:03:38;;;;;;;;;;;;;;;;;;5145020;27;19907;-71
2022/05/19 13:06:05;;;;;;;;;;;;;;;;;;5137184;27;20275;-71
2022/05/19 13:08:32;;;;;;;;;;;;;;;;;;5118772;27;19908;-71
2022/05/19 13:10:58;;;;;;;;;;;;;;;;;;5137420;27;19946;-72
2022/05/19 13:13:24;;;;;;;;;;;;;;;;;;5136664;27;20446;-71
2022/05/19 13:15:50;;;;;;;;;;;;;;;;;;5137028;27;20378;-71
2022/05/19 13:18:16;;;;;;;;;;;;;;;;;;5151522;27;19911;-72
2022/05/19 13:20:42;;;;;;;;;;;;;;;;;;5157263;27;19915;-72
2022/05/19 13:23:08;;;;;;;;;;;;;;;;;;5157581;27;20275;-72
2022/05/19 13:25:36;;;;;;;;;;;;;;;;;;5157486;27;19915;-72
2022/05/19 13:30:46;;;;;;;;;;;;;;;;;;5157480;27;19968;-72
2022/05/19 13:33:12;;;;;;;;;;;;;;;;;;5157204;27;19926;-71
2022/05/19 13:35:38;;;;;;;;;;;;;;;;;;5157126;27;19991;-71
2022/05/19 13:38:04;;;;;;;;;;;;;;;;;;5157451;27;19907;-71
2022/05/19 13:40:30;;;;;;;;;;;;;;;;;;5157358;27;19915;-72
2022/05/19 13:42:56;;;;;;;;;;;;;;;;;;5156882;27;19913;-72
2022/05/19 13:45:22;;;;;;;;;;;;;;;;;;5157047;27;19914;-71
2022/05/19 13:47:48;;;;;;;;;;;;;;;;;;5157098;27;19907;-72
2022/05/19 13:50:14;;;;;;;;;;;;;;;;;;5156800;27;20366;-71
2022/05/19 13:52:44;;;;;;;;;;;;;;;;;;5157168;27;19918;-71
2022/05/19 13:55:10;;;;;;;;;;;;;;;;;;5156691;27;20363;-71
2022/05/19 13:57:37;;;;;;;;;;;;;;;;;;5149961;27;19922;-71
2022/05/19 14:00:03;;;;;;;;;;;;;;;;;;5145478;27;19945;-72
2022/05/19 14:02:29;;;;;;;;;;;;;;;;;;5136030;27;20317;-72
2022/05/19 14:04:55;;;;;;;;;;;;;;;;;;5136091;27;19934;-72
2022/05/19 14:07:21;;;;;;;;;;;;;;;;;;5136027;27;19968;-72
2022/05/19 14:09:48;;;;;;;;;;;;;;;;;;5135456;27;19998;-72
2022/05/19 14:12:14;;;;;;;;;;;;;;;;;;5135507;27;19930;-72
2022/05/19 14:14:40;;;;;;;;;;;;;;;;;;5135677;27;20355;-71
2022/05/19 14:17:06;;;;;;;;;;;;;;;;;;5135471;27;19919;-72
2022/05/19 14:19:36;;;;;;;;;;;;;;;;;;5117396;27;19908;-72
2022/05/19 14:22:02;;;;;;;;;;;;;;;;;;5136136;27;20003;-72
2022/05/19 14:24:28;;;;;;;;;;;;;;;;;;5116931;27;19973;-72
2022/05/19 14:26:54;;;;;;;;;;;;;;;;;;5135690;27;19994;-72
2022/05/19 14:29:20;;;;;;;;;;;;;;;;;;5135613;27;20413;-72
2022/05/19 14:31:48;;;;;;;;;;;;;;;;;;5135180;27;19915;-72
2022/05/19 14:34:14;;;;;;;;;;;;;;;;;;5135150;27;19970;-72
2022/05/19 14:36:40;;;;;;;;;;;;;;;;;;5117030;27;19911;-72
2022/05/19 14:39:06;;;;;;;;;;;;;;;;;;5135054;27;19911;-72
2022/05/19 14:44:16;;;;;;;;;;;;;;;;;;5135426;27;20040;-71
2022/05/19 14:46:42;;;;;;;;;;;;;;;;;;5134991;27;20366;-72
2022/05/19 14:49:08;;;;;;;;;;;;;;;;;;5135507;27;19952;-72
2022/05/19 14:51:35;;;;;;;;;;;;;;;;;;5134983;27;19914;-72
2022/05/19 14:54:01;;;;;;;;;;;;;;;;;;5134967;27;20435;-71
2022/05/19 14:56:28;;;;;;;;;;;;;;;;;;5135340;27;19950;-71
2022/05/19 14:58:54;;;;;;;;;;;;;;;;;;5134761;27;19908;-71
2022/05/19 15:01:20;;;;;;;;;;;;;;;;;;5142495;27;20291;-71
2022/05/19 15:03:46;;;;;;;;;;;;;;;;;;5139137;27;19915;-71
2022/05/19 15:06:12;;;;;;;;;;;;;;;;;;5137033;27;20018;-70
2022/05/19 15:08:38;;;;;;;;;;;;;;;;;;5152382;27;19998;-71
2022/05/19 15:11:04;;;;;;;;;;;;;;;;;;5155680;27;19946;-71
2022/05/19 15:13:32;;;;;;;;;;;;;;;;;;5155221;27;19915;-71
2022/05/19 15:15:58;;;;;;;;;;;;;;;;;;5155459;27;19993;-71
2022/05/19 15:18:24;;;;;;;;;;;;;;;;;;5155727;27;19953;-71
2022/05/19 15:20:50;;;;;;;;;;;;;;;;;;5154978;27;19907;-72
2022/05/19 15:23:16;;;;;;;;;;;;;;;;;;5155479;27;19917;-71
2022/05/19 15:25:42;;;;;;;;;;;;;;;;;;5155295;27;19907;-71
2022/05/19 15:28:07;;;;;;;;;;;;;;;;;;5154987;27;19907;-71
2022/05/19 15:30:35;;;;;;;;;;;;;;;;;;5155260;27;19907;-71
2022/05/19 15:33:01;;;;;;;;;;;;;;;;;;5155121;27;19923;-71
2022/05/19 15:35:27;;;;;;;;;;;;;;;;;;5154955;27;19907;-71
2022/05/19 15:37:55;;;;;;;;;;;;;;;;;;5155274;27;19907;-71
2022/05/19 15:40:21;;;;;;;;;;;;;;;;;;5155274;27;20359;-71
2022/05/19 15:42:47;;;;;;;;;;;;;;;;;;5135883;27;19907;-71
2022/05/19 15:45:13;;;;;;;;;;;;;;;;;;5153935;27;20260;-71
2022/05/19 15:47:39;;;;;;;;;;;;;;;;;;5154919;27;19907;-71
2022/05/19 15:50:06;;;;;;;;;;;;;;;;;;5155038;27;19998;-71
2022/05/19 15:52:32;;;;;;;;;;;;;;;;;;5155105;27;20008;-71
2022/05/19 15:54:58;;;;;;;;;;;;;;;;;;5154702;27;20006;-71
2022/05/19 15:57:24;;;;;;;;;;;;;;;;;;5155083;27;20012;-71
2022/05/19 15:59:50;;;;;;;;;;;;;;;;;;5152847;27;19907;-71
2022/05/19 16:02:16;;;;;;;;;;;;;;;;;;5152545;27;19917;-71
2022/05/19 16:04:42;;;;;;;;;;;;;;;;;;5152853;27;19907;-71
2022/05/19 16:07:08;;;;;;;;;;;;;;;;;;5152778;27;19914;-71
2022/05/19 16:09:34;;;;;;;;;;;;;;;;;;5152330;27;19907;-71
2022/05/19 16:12:01;;;;;;;;;;;;;;;;;;5152600;27;19907;-71
2022/05/19 16:14:28;;;;;;;;;;;;;;;;;;5154893;27;19973;-71
2022/05/19 16:16:54;;;;;;;;;;;;;;;;;;5154326;27;20282;-71
2022/05/19 16:19:20;;;;;;;;;;;;;;;;;;5155181;27;19907;-71
2022/05/19 16:21:46;;;;;;;;;;;;;;;;;;5158641;27;19911;-72
2022/05/19 16:24:12;;;;;;;;;;;;;;;;;;5158255;27;19914;-72
2022/05/19 16:26:38;;;;;;;;;;;;;;;;;;5159694;27;19907;-71
2022/05/19 16:29:04;;;;;;;;;;;;;;;;;;5158668;27;19976;-73
2022/05/19 16:31:30;;;;;;;;;;;;;;;;;;5158169;27;19951;-71
2022/05/19 16:35:58;;;;;;;;;;;;;;;;;;5091788;27;19916;-71
2022/05/19 16:38:24;;;;;;;;;;;;;;;;;;5090692;28;19912;-71
2022/05/19 16:40:50;;;;;;;;;;;;;;;;;;5091015;28;20386;-71
2022/05/19 16:45:14;;;;;;;;;;;;;;;;;;5091010;27;20272;-71
2022/05/19 16:47:42;;;;;;;;;;;;;;;;;;5091133;28;20011;-71
2022/05/19 16:51:16;;;;;;;;;;;;;;;;;;5091437;28;19913;-71
2022/05/19 16:59:11;;;;;;;;;;;;;;;;;;5090571;28;19915;-71
2022/05/19 17:01:37;;;;;;;;;;;;;;;;;;5090927;28;19909;-71
2022/05/19 17:04:03;;;;;;;;;;;;;;;;;;5090860;28;19908;-71
2022/05/19 17:06:29;;;;;;;;;;;;;;;;;;5089184;28;19909;-71
2022/05/19 17:08:55;;;;;;;;;;;;;;;;;;5090796;28;19908;-71
2022/05/19 17:11:21;;;;;;;;;;;;;;;;;;5090798;28;19961;-71
2022/05/19 17:13:47;;;;;;;;;;;;;;;;;;5090398;28;19909;-72
2022/05/19 17:16:13;;;;;;;;;;;;;;;;;;5090937;28;20011;-72
2022/05/19 17:20:45;;;;;;;;;;;;;;;;;;5091032;27;20398;-71
2022/05/19 17:23:11;;;;;;;;;;;;;;;;;;5091186;28;19991;-71
2022/05/19 17:25:37;;;;;;;;;;;;;;;;;;5091119;28;19999;-72
2022/05/19 17:36:14;;;;;;;;;;;;;;;;;;5091831;27;19917;-71
2022/05/19 17:40:04;;;;;;;;;;;;;;;;;;5152956;27;19998;-71
2022/05/19 17:42:30;;;;;;;;;;;;;;;;;;5152209;27;19951;-72
2022/05/19 17:44:56;;;;;;;;;;;;;;;;;;5152636;27;19907;-71
2022/05/19 17:47:22;;;;;;;;;;;;;;;;;;5152187;27;19953;-71
2022/05/19 17:50:24;;;;;;;;;;;;;;;;;;5091730;27;19917;-72
2022/05/19 17:52:50;;;;;;;;;;;;;;;;;;5091351;28;19912;-72
2022/05/19 17:55:16;;;;;;;;;;;;;;;;;;5090989;28;19908;-73
2022/05/19 17:59:43;;;;;;;;;;;;;;;;;;5091954;28;19913;-71
2022/05/19 18:02:09;;;;;;;;;;;;;;;;;;5090648;28;19912;-71
2022/05/19 18:04:35;;;;;;;;;;;;;;;;;;5090876;28;19908;-71
2022/05/19 18:07:01;;;;;;;;;;;;;;;;;;5091392;28;19919;-71
2022/05/19 18:11:52;;;;;;;;;;;;;;;;;;5071730;28;20288;-71
2022/05/19 18:18:26;;;;;;;;;;;;;;;;;;5112243;27;19922;-71
2022/05/19 18:20:53;;;;;;;;;;;;;;;;;;5111421;28;19912;-72
2022/05/19 18:23:19;;;;;;;;;;;;;;;;;;5111037;28;19908;-72
2022/05/19 18:25:45;;;;;;;;;;;;;;;;;;5111449;28;19954;-72
2022/05/19 18:28:11;;;;;;;;;;;;;;;;;;5111518;28;19908;-72
2022/05/19 18:30:37;;;;;;;;;;;;;;;;;;5111000;28;19916;-72
2022/05/19 18:33:21;;;;;;;;;;;;;;;;;;5132512;27;20002;-72
2022/05/19 18:35:48;;;;;;;;;;;;;;;;;;5132066;28;20304;-72
2022/05/19 18:39:47;;;;;;;;;;;;;;;;;;5091803;27;20292;-71
2022/05/19 18:45:29;;;;;;;;;;;;;;;;;;5090895;27;19916;-71
2022/05/19 18:48:27;;;;;;;;;;;;;;;;;;5091971;27;19916;-71
2022/05/19 18:54:13;;;;;;;;;;;;;;;;;;5090803;27;20388;-70
2022/05/19 18:56:39;;;;;;;;;;;;;;;;;;5091208;28;20007;-70
2022/05/19 19:00:03;;;;;;;;;;;;;;;;;;5173738;27;20006;-70
2022/05/19 19:02:29;;;;;;;;;;;;;;;;;;5173448;27;19950;-71
2022/05/19 19:04:55;;;;;;;;;;;;;;;;;;5173023;27;20009;-71
2022/05/19 19:10:28;;;;;;;;;;;;;;;;;;5091297;27;20287;-72
2022/05/19 19:12:54;;;;;;;;;;;;;;;;;;5090794;28;20011;-72
2022/05/19 19:15:20;;;;;;;;;;;;;;;;;;5090996;28;19970;-71
2022/05/19 19:17:46;;;;;;;;;;;;;;;;;;5090989;28;20364;-72
2022/05/19 19:20:46;;;;;;;;;;;;;;;;;;5152430;27;19911;-72
2022/05/19 19:23:38;;;;;;;;;;;;;;;;;;5091327;27;19923;-71
2022/05/19 19:30:49;;;;;;;;;;;;;;;;;;5152885;27;20343;-72